sensor_id;sensor_type;location;lat;lon;timestamp;temperature;humidity
23124;DHT22;11731;48.592;8.858;2024-02-21T00:00:52;8.10;99.90
23124;DHT22;11731;48.592;8.858;2024-02-21T00:03:19;8.00;99.90
23124;DHT22;11731;48.592;8.858;2024-02-21T00:05:48;7.60;99.90
23124;DHT22;11731;48.592;8.858;2024-02-21T00:08:15;7.60;99.90
23124;DHT22;11731;48.592;8.858;2024-02-21T00:10:47;7.70;99.90
23124;DHT22;11731;48.592;8.858;2024-02-21T00:13:20;7.80;99.90
23124;DHT22;11731;48.592;8.858;2024-02-21T00:15:48;7.80;99.90
23124;DHT22;11731;48.592;8.858;2024-02-21T00:18:17;7.90;99.90
23124;DHT22;11731;48.592;8.858;2024-02-21T00:20:44;8.00;99.90
23124;DHT22;11731;48.592;8.858;2024-02-21T00:23:13;8.10;99.90
23124;DHT22;11731;48.592;8.858;2024-02-21T00:25:46;8.00;99.90
23124;DHT22;11731;48.592;8.858;2024-02-21T00:28:13;7.70;99.90
23124;DHT22;11731;48.592;8.858;2024-02-21T00:31:10;7.50;99.90
23124;DHT22;11731;48.592;8.858;2024-02-21T00:33:44;7.50;99.90
23124;DHT22;11731;48.592;8.858;2024-02-21T00:36:15;7.30;99.90
23124;DHT22;11731;48.592;8.858;2024-02-21T00:38:47;7.30;99.90
23124;DHT22;11731;48.592;8.858;2024-02-21T00:41:28;7.20;99.90
23124;DHT22;11731;48.592;8.858;2024-02-21T00:43:57;7.10;99.90
23124;DHT22;11731;48.592;8.858;2024-02-21T00:46:24;7.10;99.90
23124;DHT22;11731;48.592;8.858;2024-02-21T00:55:10;6.90;99.90
23124;DHT22;11731;48.592;8.858;2024-02-21T00:57:38;6.80;99.90
23124;DHT22;11731;48.592;8.858;2024-02-21T01:00:10;6.50;99.90
23124;DHT22;11731;48.592;8.858;2024-02-21T01:02:44;6.50;99.90
23124;DHT22;11731;48.592;8.858;2024-02-21T01:05:14;6.50;99.90
23124;DHT22;11731;48.592;8.858;2024-02-21T01:07:49;6.60;99.90
23124;DHT22;11731;48.592;8.858;2024-02-21T01:10:17;6.60;99.90
23124;DHT22;11731;48.592;8.858;2024-02-21T01:12:44;6.60;99.90
23124;DHT22;11731;48.592;8.858;2024-02-21T01:15:11;7.00;99.90
23124;DHT22;11731;48.592;8.858;2024-02-21T01:18:51;7.20;99.90
23124;DHT22;11731;48.592;8.858;2024-02-21T01:21:03;7.30;99.90
23124;DHT22;11731;48.592;8.858;2024-02-21T01:23:32;7.10;99.90
23124;DHT22;11731;48.592;8.858;2024-02-21T01:26:00;6.80;99.90
23124;DHT22;11731;48.592;8.858;2024-02-21T01:28:27;6.80;99.90
23124;DHT22;11731;48.592;8.858;2024-02-21T01:30:55;6.90;99.90
23124;DHT22;11731;48.592;8.858;2024-02-21T01:33:24;7.00;99.90
23124;DHT22;11731;48.592;8.858;2024-02-21T01:36:04;6.70;99.90
23124;DHT22;11731;48.592;8.858;2024-02-21T01:38:32;6.70;99.90
23124;DHT22;11731;48.592;8.858;2024-02-21T01:41:01;6.90;99.90
23124;DHT22;11731;48.592;8.858;2024-02-21T01:43:27;7.00;99.90
23124;DHT22;11731;48.592;8.858;2024-02-21T01:45:55;6.80;99.90
23124;DHT22;11731;48.592;8.858;2024-02-21T01:48:23;7.00;99.90
23124;DHT22;11731;48.592;8.858;2024-02-21T01:50:50;7.10;99.90
23124;DHT22;11731;48.592;8.858;2024-02-21T01:53:20;7.00;99.90
23124;DHT22;11731;48.592;8.858;2024-02-21T01:55:48;6.90;99.90
23124;DHT22;11731;48.592;8.858;2024-02-21T01:58:17;6.70;99.90
23124;DHT22;11731;48.592;8.858;2024-02-21T02:00:51;6.90;99.90
23124;DHT22;11731;48.592;8.858;2024-02-21T02:03:20;7.20;99.90
23124;DHT22;11731;48.592;8.858;2024-02-21T02:05:47;7.50;99.90
23124;DHT22;11731;48.592;8.858;2024-02-21T02:08:15;7.70;99.90
23124;DHT22;11731;48.592;8.858;2024-02-21T02:10:43;7.60;99.90
23124;DHT22;11731;48.592;8.858;2024-02-21T02:13:10;7.70;99.90
23124;DHT22;11731;48.592;8.858;2024-02-21T02:15:58;7.70;99.90
23124;DHT22;11731;48.592;8.858;2024-02-21T02:18:25;7.60;99.90
23124;DHT22;11731;48.592;8.858;2024-02-21T02:20:52;7.80;99.90
23124;DHT22;11731;48.592;8.858;2024-02-21T02:23:25;8.00;99.90
23124;DHT22;11731;48.592;8.858;2024-02-21T02:25:52;8.10;99.90
23124;DHT22;11731;48.592;8.858;2024-02-21T02:28:22;8.30;99.90
23124;DHT22;11731;48.592;8.858;2024-02-21T02:31:04;8.40;99.90
23124;DHT22;11731;48.592;8.858;2024-02-21T02:33:55;8.30;99.90
23124;DHT22;11731;48.592;8.858;2024-02-21T02:36:42;8.60;99.90
23124;DHT22;11731;48.592;8.858;2024-02-21T02:39:39;8.70;99.90
23124;DHT22;11731;48.592;8.858;2024-02-21T02:42:06;8.50;99.90
23124;DHT22;11731;48.592;8.858;2024-02-21T02:44:49;8.30;99.90
23124;DHT22;11731;48.592;8.858;2024-02-21T02:47:26;8.50;99.90
23124;DHT22;11731;48.592;8.858;2024-02-21T02:50:17;8.60;99.90
23124;DHT22;11731;48.592;8.858;2024-02-21T02:52:44;8.40;99.90
23124;DHT22;11731;48.592;8.858;2024-02-21T02:55:25;8.40;99.90
23124;DHT22;11731;48.592;8.858;2024-02-21T02:57:53;8.30;99.90
23124;DHT22;11731;48.592;8.858;2024-02-21T03:00:22;8.50;99.90
23124;DHT22;11731;48.592;8.858;2024-02-21T03:03:09;8.50;99.90
23124;DHT22;11731;48.592;8.858;2024-02-21T03:05:36;8.50;99.90
23124;DHT22;11731;48.592;8.858;2024-02-21T03:08:04;8.70;99.90
23124;DHT22;11731;48.592;8.858;2024-02-21T03:10:35;8.70;99.90
23124;DHT22;11731;48.592;8.858;2024-02-21T03:13:02;8.50;99.90
23124;DHT22;11731;48.592;8.858;2024-02-21T03:15:29;8.50;99.90
23124;DHT22;11731;48.592;8.858;2024-02-21T03:17:56;8.50;99.90
23124;DHT22;11731;48.592;8.858;2024-02-21T03:20:28;7.90;99.90
23124;DHT22;11731;48.592;8.858;2024-02-21T03:23:05;7.50;99.90
23124;DHT22;11731;48.592;8.858;2024-02-21T03:28:53;7.80;99.90
23124;DHT22;11731;48.592;8.858;2024-02-21T03:31:29;7.90;99.90
23124;DHT22;11731;48.592;8.858;2024-02-21T03:33:55;8.30;99.90
23124;DHT22;11731;48.592;8.858;2024-02-21T03:36:59;8.40;99.90
23124;DHT22;11731;48.592;8.858;2024-02-21T03:39:19;8.40;99.90
23124;DHT22;11731;48.592;8.858;2024-02-21T03:41:46;8.00;99.90
23124;DHT22;11731;48.592;8.858;2024-02-21T03:44:15;7.50;99.90
23124;DHT22;11731;48.592;8.858;2024-02-21T03:46:53;7.20;99.90
23124;DHT22;11731;48.592;8.858;2024-02-21T03:49:20;6.70;99.90
23124;DHT22;11731;48.592;8.858;2024-02-21T03:51:47;6.60;99.90
23124;DHT22;11731;48.592;8.858;2024-02-21T03:54:14;6.80;99.90
23124;DHT22;11731;48.592;8.858;2024-02-21T03:56:41;6.90;99.90
23124;DHT22;11731;48.592;8.858;2024-02-21T03:59:08;7.50;99.90
23124;DHT22;11731;48.592;8.858;2024-02-21T04:01:44;7.90;99.90
23124;DHT22;11731;48.592;8.858;2024-02-21T04:04:11;8.30;99.90
23124;DHT22;11731;48.592;8.858;2024-02-21T04:06:46;8.20;99.90
23124;DHT22;11731;48.592;8.858;2024-02-21T04:09:18;8.40;99.90
23124;DHT22;11731;48.592;8.858;2024-02-21T04:11:45;8.50;99.90
23124;DHT22;11731;48.592;8.858;2024-02-21T04:14:41;8.40;99.90
23124;DHT22;11731;48.592;8.858;2024-02-21T04:17:10;8.30;99.90
23124;DHT22;11731;48.592;8.858;2024-02-21T04:19:37;8.40;99.90
23124;DHT22;11731;48.592;8.858;2024-02-21T04:22:10;8.30;99.90
23124;DHT22;11731;48.592;8.858;2024-02-21T04:24:40;8.10;99.90
23124;DHT22;11731;48.592;8.858;2024-02-21T04:27:08;8.30;99.90
23124;DHT22;11731;48.592;8.858;2024-02-21T04:29:35;8.20;99.90
23124;DHT22;11731;48.592;8.858;2024-02-21T04:32:03;8.30;99.90
23124;DHT22;11731;48.592;8.858;2024-02-21T04:37:36;8.10;99.90
23124;DHT22;11731;48.592;8.858;2024-02-21T04:40:03;8.20;99.90
23124;DHT22;11731;48.592;8.858;2024-02-21T04:42:30;8.10;99.90
23124;DHT22;11731;48.592;8.858;2024-02-21T04:44:57;8.10;99.90
23124;DHT22;11731;48.592;8.858;2024-02-21T04:47:23;8.20;99.90
23124;DHT22;11731;48.592;8.858;2024-02-21T04:49:50;8.10;99.90
23124;DHT22;11731;48.592;8.858;2024-02-21T04:52:23;8.30;99.90
23124;DHT22;11731;48.592;8.858;2024-02-21T04:55:11;8.20;99.90
23124;DHT22;11731;48.592;8.858;2024-02-21T04:57:38;8.10;99.90
23124;DHT22;11731;48.592;8.858;2024-02-21T05:00:07;8.10;99.90
23124;DHT22;11731;48.592;8.858;2024-02-21T05:02:34;8.20;99.90
23124;DHT22;11731;48.592;8.858;2024-02-21T05:05:01;8.10;99.90
23124;DHT22;11731;48.592;8.858;2024-02-21T05:07:30;8.00;99.90
23124;DHT22;11731;48.592;8.858;2024-02-21T05:10:31;8.00;99.90
23124;DHT22;11731;48.592;8.858;2024-02-21T05:13:10;8.00;99.90
23124;DHT22;11731;48.592;8.858;2024-02-21T05:15:37;7.50;99.90
23124;DHT22;11731;48.592;8.858;2024-02-21T05:18:04;7.70;99.90
23124;DHT22;11731;48.592;8.858;2024-02-21T05:20:31;7.70;99.90
23124;DHT22;11731;48.592;8.858;2024-02-21T05:22:58;7.80;99.90
23124;DHT22;11731;48.592;8.858;2024-02-21T05:25:27;7.80;99.90
23124;DHT22;11731;48.592;8.858;2024-02-21T05:27:54;7.80;99.90
23124;DHT22;11731;48.592;8.858;2024-02-21T05:30:21;7.80;99.90
23124;DHT22;11731;48.592;8.858;2024-02-21T05:32:48;7.90;99.90
23124;DHT22;11731;48.592;8.858;2024-02-21T05:35:15;8.00;99.90
23124;DHT22;11731;48.592;8.858;2024-02-21T05:37:42;7.80;99.90
23124;DHT22;11731;48.592;8.858;2024-02-21T05:40:10;7.80;99.90
23124;DHT22;11731;48.592;8.858;2024-02-21T05:48:56;7.80;99.90
23124;DHT22;11731;48.592;8.858;2024-02-21T05:51:25;7.80;99.90
23124;DHT22;11731;48.592;8.858;2024-02-21T05:55:19;7.70;99.90
23124;DHT22;11731;48.592;8.858;2024-02-21T05:57:21;7.70;99.90
23124;DHT22;11731;48.592;8.858;2024-02-21T06:00:26;7.50;99.90
23124;DHT22;11731;48.592;8.858;2024-02-21T06:02:59;7.10;99.90
23124;DHT22;11731;48.592;8.858;2024-02-21T06:05:29;7.10;99.90
23124;DHT22;11731;48.592;8.858;2024-02-21T06:08:00;7.20;99.90
23124;DHT22;11731;48.592;8.858;2024-02-21T06:13:41;7.10;99.90
23124;DHT22;11731;48.592;8.858;2024-02-21T06:16:08;7.20;99.90
23124;DHT22;11731;48.592;8.858;2024-02-21T06:18:37;7.00;99.90
23124;DHT22;11731;48.592;8.858;2024-02-21T06:21:06;7.10;99.90
23124;DHT22;11731;48.592;8.858;2024-02-21T06:23:33;7.10;99.90
23124;DHT22;11731;48.592;8.858;2024-02-21T06:26:05;7.10;99.90
23124;DHT22;11731;48.592;8.858;2024-02-21T06:28:35;7.10;99.90
23124;DHT22;11731;48.592;8.858;2024-02-21T06:31:02;7.00;99.90
23124;DHT22;11731;48.592;8.858;2024-02-21T06:33:29;7.00;99.90
23124;DHT22;11731;48.592;8.858;2024-02-21T06:35:58;7.00;99.90
23124;DHT22;11731;48.592;8.858;2024-02-21T06:38:49;6.80;99.90
23124;DHT22;11731;48.592;8.858;2024-02-21T06:41:16;6.80;99.90
23124;DHT22;11731;48.592;8.858;2024-02-21T06:43:46;6.90;99.90
23124;DHT22;11731;48.592;8.858;2024-02-21T06:46:22;6.80;99.90
23124;DHT22;11731;48.592;8.858;2024-02-21T06:51:42;7.00;99.90
23124;DHT22;11731;48.592;8.858;2024-02-21T06:57:12;6.90;99.90
23124;DHT22;11731;48.592;8.858;2024-02-21T06:59:41;7.00;99.90
23124;DHT22;11731;48.592;8.858;2024-02-21T07:02:08;6.90;99.90
23124;DHT22;11731;48.592;8.858;2024-02-21T07:04:37;7.00;99.90
23124;DHT22;11731;48.592;8.858;2024-02-21T07:07:07;7.10;99.90
23124;DHT22;11731;48.592;8.858;2024-02-21T07:09:34;7.30;99.90
23124;DHT22;11731;48.592;8.858;2024-02-21T07:12:07;7.50;99.90
23124;DHT22;11731;48.592;8.858;2024-02-21T07:14:36;7.40;99.90
23124;DHT22;11731;48.592;8.858;2024-02-21T07:17:05;7.60;99.90
23124;DHT22;11731;48.592;8.858;2024-02-21T07:19:36;7.40;99.90
23124;DHT22;11731;48.592;8.858;2024-02-21T07:22:27;7.40;99.90
23124;DHT22;11731;48.592;8.858;2024-02-21T07:24:54;7.70;99.90
23124;DHT22;11731;48.592;8.858;2024-02-21T07:27:20;8.00;99.90
23124;DHT22;11731;48.592;8.858;2024-02-21T07:29:49;8.10;99.90
23124;DHT22;11731;48.592;8.858;2024-02-21T07:32:16;8.30;99.90
23124;DHT22;11731;48.592;8.858;2024-02-21T07:34:43;8.30;99.90
23124;DHT22;11731;48.592;8.858;2024-02-21T07:37:10;8.60;99.90
23124;DHT22;11731;48.592;8.858;2024-02-21T07:39:37;8.50;99.90
23124;DHT22;11731;48.592;8.858;2024-02-21T07:42:04;8.50;99.90
23124;DHT22;11731;48.592;8.858;2024-02-21T07:44:31;8.60;99.90
23124;DHT22;11731;48.592;8.858;2024-02-21T07:47:03;8.80;99.90
23124;DHT22;11731;48.592;8.858;2024-02-21T07:49:41;9.00;99.90
23124;DHT22;11731;48.592;8.858;2024-02-21T07:52:08;9.10;99.90
23124;DHT22;11731;48.592;8.858;2024-02-21T07:54:35;9.30;99.90
23124;DHT22;11731;48.592;8.858;2024-02-21T07:57:03;9.40;99.90
23124;DHT22;11731;48.592;8.858;2024-02-21T07:59:30;9.30;99.90
23124;DHT22;11731;48.592;8.858;2024-02-21T08:02:02;9.10;99.90
23124;DHT22;11731;48.592;8.858;2024-02-21T08:04:45;9.30;99.90
23124;DHT22;11731;48.592;8.858;2024-02-21T08:07:12;9.40;99.90
23124;DHT22;11731;48.592;8.858;2024-02-21T08:09:40;9.70;99.90
23124;DHT22;11731;48.592;8.858;2024-02-21T08:14:49;9.70;99.90
23124;DHT22;11731;48.592;8.858;2024-02-21T08:17:17;9.30;99.90
23124;DHT22;11731;48.592;8.858;2024-02-21T08:20:01;8.90;99.90
23124;DHT22;11731;48.592;8.858;2024-02-21T08:22:30;8.50;99.90
23124;DHT22;11731;48.592;8.858;2024-02-21T08:25:06;8.60;99.90
23124;DHT22;11731;48.592;8.858;2024-02-21T08:27:33;9.00;99.90
23124;DHT22;11731;48.592;8.858;2024-02-21T08:30:00;9.40;99.90
23124;DHT22;11731;48.592;8.858;2024-02-21T08:32:30;9.40;99.90
23124;DHT22;11731;48.592;8.858;2024-02-21T08:34:58;9.80;99.90
23124;DHT22;11731;48.592;8.858;2024-02-21T08:37:24;9.90;99.90
23124;DHT22;11731;48.592;8.858;2024-02-21T08:39:55;9.70;99.90
23124;DHT22;11731;48.592;8.858;2024-02-21T08:42:32;9.60;99.90
23124;DHT22;11731;48.592;8.858;2024-02-21T08:45:13;9.20;99.90
23124;DHT22;11731;48.592;8.858;2024-02-21T08:47:45;9.50;99.90
23124;DHT22;11731;48.592;8.858;2024-02-21T08:50:12;9.70;99.90
23124;DHT22;11731;48.592;8.858;2024-02-21T08:52:39;9.60;99.90
23124;DHT22;11731;48.592;8.858;2024-02-21T08:55:07;9.70;99.90
23124;DHT22;11731;48.592;8.858;2024-02-21T08:57:53;10.10;99.90
23124;DHT22;11731;48.592;8.858;2024-02-21T09:00:21;10.10;99.90
23124;DHT22;11731;48.592;8.858;2024-02-21T09:02:54;10.40;99.90
23124;DHT22;11731;48.592;8.858;2024-02-21T09:06:42;10.60;99.90
23124;DHT22;11731;48.592;8.858;2024-02-21T09:08:58;10.30;99.90
23124;DHT22;11731;48.592;8.858;2024-02-21T09:11:47;10.30;99.90
23124;DHT22;11731;48.592;8.858;2024-02-21T09:14:14;10.60;99.90
23124;DHT22;11731;48.592;8.858;2024-02-21T09:16:41;10.40;99.90
23124;DHT22;11731;48.592;8.858;2024-02-21T09:19:18;10.30;99.90
23124;DHT22;11731;48.592;8.858;2024-02-21T09:21:45;10.20;99.90
23124;DHT22;11731;48.592;8.858;2024-02-21T09:24:14;10.10;99.90
23124;DHT22;11731;48.592;8.858;2024-02-21T09:26:54;10.20;99.90
23124;DHT22;11731;48.592;8.858;2024-02-21T09:29:21;10.20;99.90
23124;DHT22;11731;48.592;8.858;2024-02-21T09:34:44;10.40;99.90
23124;DHT22;11731;48.592;8.858;2024-02-21T09:37:35;10.30;99.90
23124;DHT22;11731;48.592;8.858;2024-02-21T09:44:05;10.50;99.90
23124;DHT22;11731;48.592;8.858;2024-02-21T09:46:41;10.60;99.90
23124;DHT22;11731;48.592;8.858;2024-02-21T09:49:20;10.70;99.90
23124;DHT22;11731;48.592;8.858;2024-02-21T09:51:53;11.00;99.90
23124;DHT22;11731;48.592;8.858;2024-02-21T09:54:51;11.20;99.90
23124;DHT22;11731;48.592;8.858;2024-02-21T10:00:35;11.50;99.90
23124;DHT22;11731;48.592;8.858;2024-02-21T10:06:46;11.60;99.90
23124;DHT22;11731;48.592;8.858;2024-02-21T10:12:49;11.40;99.90
23124;DHT22;11731;48.592;8.858;2024-02-21T10:15:20;11.40;99.90
23124;DHT22;11731;48.592;8.858;2024-02-21T10:18:02;11.20;99.90
23124;DHT22;11731;48.592;8.858;2024-02-21T10:20:30;11.20;99.90
23124;DHT22;11731;48.592;8.858;2024-02-21T10:23:03;11.30;99.90
23124;DHT22;11731;48.592;8.858;2024-02-21T10:25:33;11.50;99.90
23124;DHT22;11731;48.592;8.858;2024-02-21T10:28:02;11.40;99.90
23124;DHT22;11731;48.592;8.858;2024-02-21T10:30:30;11.30;99.90
23124;DHT22;11731;48.592;8.858;2024-02-21T10:40:14;11.80;99.90
23124;DHT22;11731;48.592;8.858;2024-02-21T10:43:08;11.90;99.90
23124;DHT22;11731;48.592;8.858;2024-02-21T10:45:39;12.40;99.90
23124;DHT22;11731;48.592;8.858;2024-02-21T10:48:10;12.50;99.90
23124;DHT22;11731;48.592;8.858;2024-02-21T10:50:50;12.40;99.90
23124;DHT22;11731;48.592;8.858;2024-02-21T10:53:27;12.60;99.90
23124;DHT22;11731;48.592;8.858;2024-02-21T10:56:01;12.60;99.90
23124;DHT22;11731;48.592;8.858;2024-02-21T10:58:33;13.20;99.90
23124;DHT22;11731;48.592;8.858;2024-02-21T11:01:06;13.20;99.90
23124;DHT22;11731;48.592;8.858;2024-02-21T11:04:17;13.40;99.90
23124;DHT22;11731;48.592;8.858;2024-02-21T11:06:38;13.30;99.90
23124;DHT22;11731;48.592;8.858;2024-02-21T11:09:08;13.70;99.90
23124;DHT22;11731;48.592;8.858;2024-02-21T11:11:37;13.60;99.90
23124;DHT22;11731;48.592;8.858;2024-02-21T11:14:07;13.40;99.90
23124;DHT22;11731;48.592;8.858;2024-02-21T11:16:52;13.70;99.90
23124;DHT22;11731;48.592;8.858;2024-02-21T11:23:30;13.40;99.90
23124;DHT22;11731;48.592;8.858;2024-02-21T11:37:26;14.10;99.90
23124;DHT22;11731;48.592;8.858;2024-02-21T11:39:53;13.90;99.90
23124;DHT22;11731;48.592;8.858;2024-02-21T11:42:21;14.60;99.90
23124;DHT22;11731;48.592;8.858;2024-02-21T11:45:05;14.70;99.90
23124;DHT22;11731;48.592;8.858;2024-02-21T11:47:35;14.70;99.90
23124;DHT22;11731;48.592;8.858;2024-02-21T11:50:05;14.50;99.90
23124;DHT22;11731;48.592;8.858;2024-02-21T11:52:33;14.50;99.90
23124;DHT22;11731;48.592;8.858;2024-02-21T11:55:00;14.10;99.90
23124;DHT22;11731;48.592;8.858;2024-02-21T11:59:17;14.00;99.90
23124;DHT22;11731;48.592;8.858;2024-02-21T12:01:18;14.30;99.90
23124;DHT22;11731;48.592;8.858;2024-02-21T12:03:53;14.70;99.90
23124;DHT22;11731;48.592;8.858;2024-02-21T12:06:22;14.90;99.90
23124;DHT22;11731;48.592;8.858;2024-02-21T12:08:51;14.70;99.90
23124;DHT22;11731;48.592;8.858;2024-02-21T12:14:16;14.90;99.90
23124;DHT22;11731;48.592;8.858;2024-02-21T12:16:44;15.20;99.90
23124;DHT22;11731;48.592;8.858;2024-02-21T12:25:35;15.50;99.90
23124;DHT22;11731;48.592;8.858;2024-02-21T12:28:17;15.50;99.90
23124;DHT22;11731;48.592;8.858;2024-02-21T12:31:20;15.40;99.90
23124;DHT22;11731;48.592;8.858;2024-02-21T12:33:43;15.00;99.90
23124;DHT22;11731;48.592;8.858;2024-02-21T12:37:04;14.90;99.90
23124;DHT22;11731;48.592;8.858;2024-02-21T12:39:29;15.20;99.90
23124;DHT22;11731;48.592;8.858;2024-02-21T12:42:11;15.20;99.90
23124;DHT22;11731;48.592;8.858;2024-02-21T12:45:29;15.60;99.90
23124;DHT22;11731;48.592;8.858;2024-02-21T12:48:01;15.40;99.70
23124;DHT22;11731;48.592;8.858;2024-02-21T12:53:28;15.70;98.00
23124;DHT22;11731;48.592;8.858;2024-02-21T12:56:12;15.70;96.70
23124;DHT22;11731;48.592;8.858;2024-02-21T12:58:43;15.40;96.40
23124;DHT22;11731;48.592;8.858;2024-02-21T13:01:16;15.20;96.30
23124;DHT22;11731;48.592;8.858;2024-02-21T13:03:43;14.80;96.90
23124;DHT22;11731;48.592;8.858;2024-02-21T13:09:44;14.10;97.00
23124;DHT22;11731;48.592;8.858;2024-02-21T13:12:28;14.20;97.00
23124;DHT22;11731;48.592;8.858;2024-02-21T13:15:11;14.50;96.50
23124;DHT22;11731;48.592;8.858;2024-02-21T13:18:39;14.50;95.70
23124;DHT22;11731;48.592;8.858;2024-02-21T13:21:16;14.50;95.10
23124;DHT22;11731;48.592;8.858;2024-02-21T13:26:53;14.00;94.90
23124;DHT22;11731;48.592;8.858;2024-02-21T13:29:50;14.00;95.00
23124;DHT22;11731;48.592;8.858;2024-02-21T13:37:52;13.60;96.40
23124;DHT22;11731;48.592;8.858;2024-02-21T13:40:34;13.60;97.20
23124;DHT22;11731;48.592;8.858;2024-02-21T13:43:29;13.40;97.30
23124;DHT22;11731;48.592;8.858;2024-02-21T13:45:58;13.60;98.40
23124;DHT22;11731;48.592;8.858;2024-02-21T13:48:26;13.70;98.60
23124;DHT22;11731;48.592;8.858;2024-02-21T13:51:06;13.80;98.10
23124;DHT22;11731;48.592;8.858;2024-02-21T13:53:35;14.20;98.50
23124;DHT22;11731;48.592;8.858;2024-02-21T13:56:02;14.30;98.50
23124;DHT22;11731;48.592;8.858;2024-02-21T13:58:29;14.30;98.80
23124;DHT22;11731;48.592;8.858;2024-02-21T14:00:56;14.40;98.20
23124;DHT22;11731;48.592;8.858;2024-02-21T14:03:26;14.30;98.70
23124;DHT22;11731;48.592;8.858;2024-02-21T14:07:21;14.50;98.90
23124;DHT22;11731;48.592;8.858;2024-02-21T14:18:39;14.60;99.90
23124;DHT22;11731;48.592;8.858;2024-02-21T14:21:07;14.60;99.90
23124;DHT22;11731;48.592;8.858;2024-02-21T14:23:36;14.60;99.90
23124;DHT22;11731;48.592;8.858;2024-02-21T14:26:03;14.60;99.90
23124;DHT22;11731;48.592;8.858;2024-02-21T14:29:14;14.60;99.90
23124;DHT22;11731;48.592;8.858;2024-02-21T14:32:44;15.00;99.90
23124;DHT22;11731;48.592;8.858;2024-02-21T14:35:05;15.70;99.70
23124;DHT22;11731;48.592;8.858;2024-02-21T14:37:34;15.50;99.40
23124;DHT22;11731;48.592;8.858;2024-02-21T14:40:26;15.50;99.10
23124;DHT22;11731;48.592;8.858;2024-02-21T14:43:15;15.30;99.30
23124;DHT22;11731;48.592;8.858;2024-02-21T14:46:06;15.70;99.80
23124;DHT22;11731;48.592;8.858;2024-02-21T15:07:50;15.10;99.90
23124;DHT22;11731;48.592;8.858;2024-02-21T15:10:26;15.60;99.90
23124;DHT22;11731;48.592;8.858;2024-02-21T15:14:05;15.90;99.90
23124;DHT22;11731;48.592;8.858;2024-02-21T15:16:30;16.30;99.90
23124;DHT22;11731;48.592;8.858;2024-02-21T15:24:35;15.70;99.90
23124;DHT22;11731;48.592;8.858;2024-02-21T15:27:31;15.90;99.90
23124;DHT22;11731;48.592;8.858;2024-02-21T15:30:52;16.10;99.90
23124;DHT22;11731;48.592;8.858;2024-02-21T15:33:39;15.90;99.90
23124;DHT22;11731;48.592;8.858;2024-02-21T15:36:10;15.80;99.90
23124;DHT22;11731;48.592;8.858;2024-02-21T15:38:37;15.70;99.90
23124;DHT22;11731;48.592;8.858;2024-02-21T15:41:38;15.40;99.90
23124;DHT22;11731;48.592;8.858;2024-02-21T15:44:08;15.30;99.90
23124;DHT22;11731;48.592;8.858;2024-02-21T15:46:38;15.00;99.90
23124;DHT22;11731;48.592;8.858;2024-02-21T15:49:11;14.50;99.90
23124;DHT22;11731;48.592;8.858;2024-02-21T15:51:57;14.40;99.90
23124;DHT22;11731;48.592;8.858;2024-02-21T15:58:09;13.90;99.90
23124;DHT22;11731;48.592;8.858;2024-02-21T16:04:05;13.80;99.90
23124;DHT22;11731;48.592;8.858;2024-02-21T16:09:55;13.70;99.90
23124;DHT22;11731;48.592;8.858;2024-02-21T16:15:49;13.60;99.90
23124;DHT22;11731;48.592;8.858;2024-02-21T16:18:16;13.40;99.90
23124;DHT22;11731;48.592;8.858;2024-02-21T16:20:55;13.50;99.90
23124;DHT22;11731;48.592;8.858;2024-02-21T16:23:45;13.70;99.90
23124;DHT22;11731;48.592;8.858;2024-02-21T16:29:32;14.10;99.90
23124;DHT22;11731;48.592;8.858;2024-02-21T16:32:23;14.30;99.90
23124;DHT22;11731;48.592;8.858;2024-02-21T16:38:50;14.00;99.90
23124;DHT22;11731;48.592;8.858;2024-02-21T16:47:39;13.20;99.90
23124;DHT22;11731;48.592;8.858;2024-02-21T16:50:47;12.70;99.90
23124;DHT22;11731;48.592;8.858;2024-02-21T17:03:09;12.50;99.90
23124;DHT22;11731;48.592;8.858;2024-02-21T17:05:50;12.60;99.90
23124;DHT22;11731;48.592;8.858;2024-02-21T17:12:13;13.00;99.90
23124;DHT22;11731;48.592;8.858;2024-02-21T17:44:09;12.80;99.90
23124;DHT22;11731;48.592;8.858;2024-02-21T17:47:08;12.50;99.90
23124;DHT22;11731;48.592;8.858;2024-02-21T17:49:57;12.60;99.90
23124;DHT22;11731;48.592;8.858;2024-02-21T17:52:30;12.70;99.90
23124;DHT22;11731;48.592;8.858;2024-02-21T17:55:00;12.70;99.90
23124;DHT22;11731;48.592;8.858;2024-02-21T17:57:41;12.90;99.90
23124;DHT22;11731;48.592;8.858;2024-02-21T18:00:25;12.70;99.90
23124;DHT22;11731;48.592;8.858;2024-02-21T18:02:56;12.30;99.90
23124;DHT22;11731;48.592;8.858;2024-02-21T18:05:41;12.40;99.90
23124;DHT22;11731;48.592;8.858;2024-02-21T18:08:12;12.60;99.90
23124;DHT22;11731;48.592;8.858;2024-02-21T18:10:48;12.70;99.90
23124;DHT22;11731;48.592;8.858;2024-02-21T18:13:20;12.70;99.90
23124;DHT22;11731;48.592;8.858;2024-02-21T18:16:05;12.70;99.90
23124;DHT22;11731;48.592;8.858;2024-02-21T18:21:52;12.20;99.90
23124;DHT22;11731;48.592;8.858;2024-02-21T18:24:41;11.80;99.90
23124;DHT22;11731;48.592;8.858;2024-02-21T18:27:08;11.20;99.90
23124;DHT22;11731;48.592;8.858;2024-02-21T18:30:22;11.10;99.90
23124;DHT22;11731;48.592;8.858;2024-02-21T18:35:49;11.00;99.90
23124;DHT22;11731;48.592;8.858;2024-02-21T18:38:16;10.90;99.90
23124;DHT22;11731;48.592;8.858;2024-02-21T18:40:43;11.00;99.90
23124;DHT22;11731;48.592;8.858;2024-02-21T18:43:10;11.10;99.90
23124;DHT22;11731;48.592;8.858;2024-02-21T19:09:22;11.50;99.90
23124;DHT22;11731;48.592;8.858;2024-02-21T19:11:49;11.10;99.90
23124;DHT22;11731;48.592;8.858;2024-02-21T19:14:16;10.80;99.90
23124;DHT22;11731;48.592;8.858;2024-02-21T19:16:43;10.80;99.90
23124;DHT22;11731;48.592;8.858;2024-02-21T19:19:21;10.90;99.90
23124;DHT22;11731;48.592;8.858;2024-02-21T19:22:00;11.10;99.90
23124;DHT22;11731;48.592;8.858;2024-02-21T19:24:31;11.20;99.90
23124;DHT22;11731;48.592;8.858;2024-02-21T19:27:25;11.10;99.90
23124;DHT22;11731;48.592;8.858;2024-02-21T19:33:32;11.30;99.90
23124;DHT22;11731;48.592;8.858;2024-02-21T19:36:12;11.40;99.90
23124;DHT22;11731;48.592;8.858;2024-02-21T19:38:39;11.30;99.90
23124;DHT22;11731;48.592;8.858;2024-02-21T19:44:25;11.40;99.90
23124;DHT22;11731;48.592;8.858;2024-02-21T19:46:52;12.00;99.90
23124;DHT22;11731;48.592;8.858;2024-02-21T19:52:46;12.30;99.90
23124;DHT22;11731;48.592;8.858;2024-02-21T19:58:39;12.50;99.90
23124;DHT22;11731;48.592;8.858;2024-02-21T20:01:10;12.20;99.90
23124;DHT22;11731;48.592;8.858;2024-02-21T20:04:02;11.80;99.90
23124;DHT22;11731;48.592;8.858;2024-02-21T20:06:32;11.70;99.90
23124;DHT22;11731;48.592;8.858;2024-02-21T20:12:14;11.40;99.90
23124;DHT22;11731;48.592;8.858;2024-02-21T20:17:58;11.70;99.90
23124;DHT22;11731;48.592;8.858;2024-02-21T20:21:58;11.90;99.90
23124;DHT22;11731;48.592;8.858;2024-02-21T20:29:58;12.20;99.90
23124;DHT22;11731;48.592;8.858;2024-02-21T20:30:14;12.10;99.90
23124;DHT22;11731;48.592;8.858;2024-02-21T20:33:13;12.50;99.90
23124;DHT22;11731;48.592;8.858;2024-02-21T20:38:56;12.00;99.90
23124;DHT22;11731;48.592;8.858;2024-02-21T20:41:23;11.40;99.90
23124;DHT22;11731;48.592;8.858;2024-02-21T20:44:00;11.50;99.90